Time;durP1;ratioP1;P1;durP2;ratioP2;P2;SDS_P1;SDS_P2;PMS_P1;PMS_P2;Temp;Humidity;BMP_temperature;BMP_pressure;BME280_temperature;BME280_humidity;BME280_pressure;Samples;Min_cycle;Max_cycle;Signal;HPM_P1;HPM_P2
2023/01/26 00:02:23;;;;;;;13.88;12.40;;;3.30;99.90;;;;;;5025256;28;20673;-69
2023/01/26 00:04:50;;;;;;;12.68;11.43;;;3.30;99.90;;;;;;5027079;28;20315;-69
2023/01/26 00:07:16;;;;;;;11.68;10.57;;;3.20;99.90;;;;;;5028143;28;20286;-69
2023/01/26 00:09:43;;;;;;;11.50;10.40;;;3.20;99.90;;;;;;5025821;28;20308;-69
2023/01/26 00:12:11;;;;;;;10.85;9.80;;;3.10;99.90;;;;;;5024571;28;20296;-69
2023/01/26 00:14:50;;;;;;;11.35;10.25;;;3.10;99.90;;;;;;5025661;28;20303;-69
2023/01/26 00:17:24;;;;;;;11.13;10.13;;;3.10;99.90;;;;;;5023724;28;20192;-69
2023/01/26 00:19:53;;;;;;;11.15;10.07;;;3.10;99.90;;;;;;5025980;28;20242;-69
2023/01/26 00:22:20;;;;;;;11.20;10.10;;;3.00;99.90;;;;;;5023048;28;20222;-68
2023/01/26 00:24:47;;;;;;;11.13;10.05;;;3.00;99.90;;;;;;5027602;28;20426;-68
2023/01/26 00:27:16;;;;;;;10.00;9.05;;;3.00;99.90;;;;;;5026322;28;20291;-68
2023/01/26 00:29:43;;;;;;;10.48;9.48;;;3.00;99.90;;;;;;5025382;28;20307;-68
2023/01/26 00:32:10;;;;;;;10.10;9.10;;;3.00;99.90;;;;;;5025363;28;20287;-68
2023/01/26 00:34:36;;;;;;;10.98;9.98;;;3.00;99.90;;;;;;5063069;22;20325;-72
2023/01/26 00:37:03;;;;;;;10.07;9.07;;;3.00;99.90;;;;;;5045704;28;20294;-73
2023/01/26 00:39:30;;;;;;;9.02;8.23;;;3.00;99.90;;;;;;5043566;28;20314;-73
2023/01/26 00:42:13;;;;;;;9.32;8.52;;;3.00;99.90;;;;;;5063692;28;20191;-72
2023/01/26 00:44:43;;;;;;;9.07;8.27;;;2.90;99.90;;;;;;5046103;28;20223;-73
2023/01/26 00:47:11;;;;;;;9.50;8.60;;;3.00;99.90;;;;;;5047115;28;20230;-73
2023/01/26 00:49:39;;;;;;;9.13;8.25;;;2.90;99.90;;;;;;5043678;28;20310;-72
2023/01/26 00:52:06;;;;;;;8.63;7.93;;;2.90;99.90;;;;;;5045820;28;20291;-71
2023/01/26 00:54:33;;;;;;;8.43;7.68;;;2.80;99.90;;;;;;5043799;28;20246;-73
2023/01/26 00:57:00;;;;;;;8.40;7.70;;;2.80;99.90;;;;;;5048288;28;20649;-72
2023/01/26 00:59:28;;;;;;;8.98;8.20;;;2.80;99.90;;;;;;5041931;28;20282;-72
2023/01/26 01:01:57;;;;;;;8.80;8.10;;;2.80;99.90;;;;;;5046098;28;20198;-72
2023/01/26 01:04:24;;;;;;;9.27;8.45;;;2.80;99.90;;;;;;5039874;28;20704;-72
2023/01/26 01:06:51;;;;;;;10.05;9.05;;;2.70;99.90;;;;;;5048167;28;20222;-72
2023/01/26 01:09:18;;;;;;;8.10;7.40;;;2.70;99.90;;;;;;5045441;28;20289;-72
2023/01/26 01:11:45;;;;;;;9.15;8.25;;;2.60;99.90;;;;;;5047719;28;20286;-72
2023/01/26 01:14:12;;;;;;;9.82;8.93;;;2.60;99.90;;;;;;5044884;28;20604;-73
2023/01/26 01:16:40;;;;;;;9.07;8.30;;;2.50;99.90;;;;;;5044253;28;20211;-72
2023/01/26 01:19:08;;;;;;;9.27;8.48;;;2.40;99.90;;;;;;5044704;28;20306;-70
2023/01/26 01:21:35;;;;;;;8.68;7.82;;;2.40;99.90;;;;;;5042602;28;20635;-72
2023/01/26 01:24:03;;;;;;;9.45;8.25;;;2.40;99.90;;;;;;5046026;28;20305;-72
2023/01/26 01:26:30;;;;;;;7.97;7.32;;;2.30;99.90;;;;;;5045342;28;20215;-72
2023/01/26 01:28:57;;;;;;;8.07;7.47;;;2.30;99.90;;;;;;5046425;28;20289;-72
2023/01/26 01:31:24;;;;;;;7.70;7.00;;;2.40;99.90;;;;;;5044678;28;20293;-72
2023/01/26 01:33:52;;;;;;;7.82;7.15;;;2.40;99.90;;;;;;5047765;28;20238;-72
2023/01/26 01:36:21;;;;;;;8.43;7.65;;;2.40;99.90;;;;;;5052760;28;20595;-72
2023/01/26 01:38:48;;;;;;;7.45;6.85;;;2.40;99.90;;;;;;5044756;28;20286;-72
2023/01/26 01:41:18;;;;;;;7.35;6.72;;;2.30;99.90;;;;;;5043756;28;20258;-73
2023/01/26 01:43:45;;;;;;;6.80;6.30;;;2.30;99.90;;;;;;5048297;28;20998;-73
2023/01/26 01:46:18;;;;;;;7.53;6.88;;;2.30;99.90;;;;;;5046074;28;20298;-72
2023/01/26 01:48:52;;;;;;;6.68;6.07;;;2.30;99.90;;;;;;5048652;28;20242;-72
2023/01/26 01:51:30;;;;;;;7.00;6.50;;;2.30;99.90;;;;;;5047065;28;20333;-71
2023/01/26 01:54:03;;;;;;;6.13;5.65;;;2.30;99.90;;;;;;5044839;28;20326;-71
2023/01/26 01:56:32;;;;;;;6.35;5.75;;;2.30;99.90;;;;;;5045170;28;20305;-72
2023/01/26 01:59:01;;;;;;;6.22;5.72;;;2.30;99.90;;;;;;5047053;28;20294;-71
2023/01/26 02:01:28;;;;;;;6.05;5.65;;;2.30;99.90;;;;;;5047543;28;20297;-72
2023/01/26 02:03:59;;;;;;;6.18;5.68;;;2.30;99.90;;;;;;5046236;28;20309;-72
2023/01/26 02:06:33;;;;;;;6.55;6.05;;;2.30;99.90;;;;;;5044467;28;20243;-72
2023/01/26 02:09:00;;;;;;;6.68;6.18;;;2.20;99.90;;;;;;5048773;28;20215;-70
2023/01/26 02:11:33;;;;;;;6.53;6.03;;;2.20;99.90;;;;;;5046267;28;20333;-72
2023/01/26 02:14:02;;;;;;;6.45;5.95;;;2.20;99.90;;;;;;5040501;28;20588;-72
2023/01/26 02:16:29;;;;;;;6.88;6.28;;;2.20;99.90;;;;;;5046813;28;20241;-73
2023/01/26 02:18:56;;;;;;;6.53;5.95;;;2.20;99.90;;;;;;5047410;28;20230;-72
2023/01/26 02:21:24;;;;;;;6.90;6.40;;;2.20;99.90;;;;;;5046066;28;20305;-73
2023/01/26 02:24:06;;;;;;;6.50;6.00;;;2.20;99.90;;;;;;5047269;28;20270;-73
2023/01/26 02:26:36;;;;;;;6.50;6.00;;;2.20;99.90;;;;;;5045503;28;20262;-72
2023/01/26 02:29:06;;;;;;;6.93;6.32;;;2.20;99.90;;;;;;5057574;28;20225;-73
2023/01/26 02:31:33;;;;;;;7.63;6.93;;;2.20;99.90;;;;;;5048404;28;20313;-73
2023/01/26 02:34:00;;;;;;;6.68;6.18;;;2.20;99.90;;;;;;5043152;28;20304;-73
2023/01/26 02:36:30;;;;;;;6.28;5.78;;;2.10;99.90;;;;;;5046366;28;20301;-73
2023/01/26 02:39:12;;;;;;;7.10;6.50;;;2.10;99.90;;;;;;5044471;28;20286;-74
2023/01/26 02:44:27;;;;;;;6.75;6.22;;;2.00;99.90;;;;;;5047847;28;20418;-73
2023/01/26 02:46:55;;;;;;;6.82;6.22;;;2.00;99.90;;;;;;5054165;28;20222;-73
2023/01/26 02:52:07;;;;;;;7.68;7.07;;;2.00;99.90;;;;;;5052916;28;20206;-73
2023/01/26 02:57:20;;;;;;;7.43;6.75;;;1.90;99.90;;;;;;5053984;28;20325;-73
2023/01/26 02:59:47;;;;;;;7.45;6.85;;;1.80;99.90;;;;;;5048234;28;20649;-74
2023/01/26 03:02:15;;;;;;;6.43;5.82;;;1.70;99.90;;;;;;5050292;28;20309;-72
2023/01/26 03:04:42;;;;;;;6.70;6.20;;;1.70;99.90;;;;;;5049315;28;20301;-74
2023/01/26 03:07:09;;;;;;;6.47;5.97;;;1.70;99.90;;;;;;5053681;28;20230;-73
2023/01/26 03:09:36;;;;;;;6.47;5.97;;;1.70;99.90;;;;;;5050629;28;20249;-74
2023/01/26 03:12:04;;;;;;;7.28;6.68;;;1.70;99.90;;;;;;5049786;28;20617;-74
2023/01/26 03:14:32;;;;;;;6.65;6.05;;;1.70;99.90;;;;;;5049544;28;20254;-74
2023/01/26 03:16:59;;;;;;;7.63;7.03;;;1.70;99.90;;;;;;5052769;28;20782;-73
2023/01/26 03:27:43;;;;;;;6.72;6.22;;;1.60;99.90;;;;;;5050748;28;20282;-74
2023/01/26 03:30:13;;;;;;;6.47;5.97;;;1.60;99.90;;;;;;5049597;28;20312;-74
2023/01/26 03:32:40;;;;;;;7.20;6.60;;;1.70;99.90;;;;;;5050856;28;20282;-73
2023/01/26 03:35:08;;;;;;;7.10;6.50;;;1.60;99.90;;;;;;5050251;28;20317;-73
2023/01/26 03:37:42;;;;;;;6.57;6.13;;;1.60;99.90;;;;;;5051278;28;20665;-73
2023/01/26 03:56:39;;;;;;;6.75;6.22;;;1.50;99.90;;;;;;5048858;28;20245;-74
2023/01/26 03:59:08;;;;;;;6.93;6.40;;;1.50;99.90;;;;;;5043832;28;20298;-73
2023/01/26 04:01:38;;;;;;;6.53;6.00;;;1.50;99.90;;;;;;5050310;28;20254;-74
2023/01/26 04:09:38;;;;;;;6.10;5.60;;;1.50;99.90;;;;;;5046980;28;20592;-74
2023/01/26 04:12:06;;;;;;;6.72;6.22;;;1.40;99.90;;;;;;5051203;28;20214;-74
2023/01/26 04:22:48;;;;;;;6.68;6.18;;;1.30;99.90;;;;;;5046676;28;20204;-75
2023/01/26 04:25:19;;;;;;;6.25;5.78;;;1.30;99.90;;;;;;5052681;28;20254;-75
2023/01/26 04:27:46;;;;;;;6.70;6.10;;;1.30;99.90;;;;;;5051908;28;20237;-74
2023/01/26 04:30:15;;;;;;;7.30;6.70;;;1.30;99.90;;;;;;5050570;28;20257;-75
2023/01/26 04:32:44;;;;;;;5.95;5.55;;;1.30;99.90;;;;;;5052876;28;20230;-74
2023/01/26 04:35:12;;;;;;;7.30;6.70;;;1.20;99.90;;;;;;5049553;28;20227;-74
2023/01/26 04:37:39;;;;;;;7.15;6.55;;;1.20;99.90;;;;;;5048762;28;20222;-74
2023/01/26 04:40:08;;;;;;;6.70;6.20;;;1.20;99.90;;;;;;5048530;28;20298;-75
2023/01/26 04:42:35;;;;;;;6.25;5.80;;;1.20;99.90;;;;;;5047484;28;20241;-75
2023/01/26 04:45:02;;;;;;;5.47;5.07;;;1.20;99.90;;;;;;5047945;28;20305;-74
2023/01/26 04:47:29;;;;;;;5.53;5.22;;;1.10;99.90;;;;;;5049168;28;20651;-75
2023/01/26 04:49:57;;;;;;;5.95;5.47;;;1.10;99.90;;;;;;5047935;28;20253;-74
2023/01/26 04:52:24;;;;;;;5.57;5.18;;;1.10;99.90;;;;;;5049994;28;20238;-74
2023/01/26 04:54:51;;;;;;;5.70;5.20;;;1.10;99.90;;;;;;5045413;28;20324;-74
2023/01/26 04:57:19;;;;;;;5.30;4.90;;;1.20;99.90;;;;;;5046901;28;20290;-75
2023/01/26 04:59:46;;;;;;;5.57;5.18;;;1.20;99.90;;;;;;5046823;28;20219;-74
2023/01/26 05:02:13;;;;;;;5.07;4.68;;;1.10;99.90;;;;;;5048612;28;20229;-74
2023/01/26 05:04:40;;;;;;;5.82;5.43;;;1.10;99.90;;;;;;5040005;28;20780;-75
2023/01/26 05:07:08;;;;;;;5.78;5.38;;;1.10;99.90;;;;;;5047053;28;20219;-74
2023/01/26 05:09:35;;;;;;;5.88;5.38;;;1.10;99.90;;;;;;5045011;28;20306;-74
2023/01/26 05:14:42;;;;;;;6.18;5.63;;;1.00;99.90;;;;;;5047249;28;20213;-74
2023/01/26 05:17:09;;;;;;;6.25;5.75;;;0.90;99.90;;;;;;5045611;28;20219;-74
2023/01/26 05:19:36;;;;;;;7.00;6.47;;;0.90;99.90;;;;;;5047503;28;20250;-74
2023/01/26 05:22:03;;;;;;;5.78;5.28;;;0.80;99.90;;;;;;5047121;28;20226;-74
2023/01/26 05:24:31;;;;;;;6.22;5.75;;;0.80;99.90;;;;;;5048299;28;20288;-74
2023/01/26 05:29:39;;;;;;;6.53;5.93;;;0.70;99.90;;;;;;5044749;28;20214;-75
2023/01/26 05:32:06;;;;;;;6.38;5.88;;;0.70;99.90;;;;;;5047578;28;20246;-74
2023/01/26 05:34:33;;;;;;;5.85;5.45;;;0.80;99.90;;;;;;5047100;28;20313;-75
2023/01/26 05:37:00;;;;;;;6.32;5.82;;;0.80;99.90;;;;;;5044396;28;20717;-74
2023/01/26 05:39:27;;;;;;;6.72;6.22;;;0.80;99.90;;;;;;5048020;28;20231;-74
2023/01/26 05:41:55;;;;;;;6.88;6.28;;;0.80;99.90;;;;;;5047562;28;20277;-74
2023/01/26 05:44:23;;;;;;;5.78;5.38;;;0.80;99.90;;;;;;5044791;28;20219;-75
2023/01/26 05:46:50;;;;;;;6.47;5.97;;;0.90;99.90;;;;;;5043590;28;20195;-75
2023/01/26 05:49:17;;;;;;;6.18;5.78;;;0.90;99.90;;;;;;5045279;28;20732;-74
2023/01/26 05:51:44;;;;;;;6.32;5.82;;;0.90;99.90;;;;;;5045562;28;20289;-73
2023/01/26 05:54:11;;;;;;;6.35;5.85;;;0.90;99.90;;;;;;5046491;28;20770;-73
2023/01/26 05:56:38;;;;;;;5.55;5.15;;;0.80;99.90;;;;;;5047662;28;20230;-75
2023/01/26 05:59:06;;;;;;;5.13;4.80;;;0.90;99.90;;;;;;5045958;28;20299;-74
2023/01/26 06:01:33;;;;;;;5.65;5.35;;;0.90;99.90;;;;;;5047572;28;20314;-74
2023/01/26 06:04:00;;;;;;;5.80;5.40;;;0.90;99.90;;;;;;5043265;28;20772;-74
2023/01/26 06:06:27;;;;;;;4.97;4.68;;;0.90;99.90;;;;;;5057795;28;20258;-74
2023/01/26 06:08:54;;;;;;;5.50;5.10;;;0.80;99.90;;;;;;5043969;28;20290;-75
2023/01/26 06:11:21;;;;;;;5.30;4.97;;;0.80;99.90;;;;;;5041353;28;20243;-73
2023/01/26 06:13:48;;;;;;;5.75;5.25;;;0.80;99.90;;;;;;5039104;28;20447;-75
2023/01/26 06:16:16;;;;;;;5.50;5.10;;;0.80;99.90;;;;;;5042679;28;20218;-74
2023/01/26 06:18:43;;;;;;;5.13;4.82;;;0.80;99.90;;;;;;5045503;28;20663;-74
2023/01/26 06:21:10;;;;;;;5.65;5.25;;;0.80;99.90;;;;;;5044393;28;20263;-74
2023/01/26 06:23:37;;;;;;;5.90;5.45;;;0.80;99.90;;;;;;5040918;28;20303;-76
2023/01/26 06:26:05;;;;;;;5.22;4.82;;;0.80;99.90;;;;;;5045411;28;20368;-74
2023/01/26 06:28:32;;;;;;;4.80;4.50;;;0.70;99.90;;;;;;5044410;28;20273;-75
2023/01/26 06:31:01;;;;;;;5.30;5.00;;;0.70;99.90;;;;;;5045029;28;20246;-74
2023/01/26 06:33:33;;;;;;;4.82;4.47;;;0.70;99.90;;;;;;5070165;22;20720;-70
2023/01/26 06:36:01;;;;;;;5.60;5.20;;;0.70;99.90;;;;;;5007161;28;20219;-68
2023/01/26 06:38:28;;;;;;;5.18;4.85;;;0.70;99.90;;;;;;5015791;28;20227;-67
2023/01/26 06:40:59;;;;;;;5.85;5.45;;;0.60;99.90;;;;;;5008967;28;20303;-68
2023/01/26 06:43:26;;;;;;;5.28;4.97;;;0.60;99.90;;;;;;5014733;28;20200;-67
2023/01/26 06:45:55;;;;;;;5.85;5.45;;;0.60;99.90;;;;;;5010822;28;20315;-67
2023/01/26 06:48:22;;;;;;;5.15;4.85;;;0.60;99.90;;;;;;5015705;28;20290;-67
2023/01/26 06:50:51;;;;;;;5.38;4.80;;;0.60;99.90;;;;;;5014074;28;20334;-68
2023/01/26 06:53:29;;;;;;;4.38;4.07;;;0.60;99.90;;;;;;5015657;28;20679;-67
2023/01/26 06:55:56;;;;;;;5.65;5.18;;;0.60;99.90;;;;;;5011059;28;20299;-67
2023/01/26 06:58:23;;;;;;;6.10;5.60;;;0.60;99.90;;;;;;5009264;28;20717;-70
2023/01/26 07:00:49;;;;;;;5.63;5.20;;;0.60;99.90;;;;;;5008045;28;20236;-68
2023/01/26 07:03:16;;;;;;;5.65;5.15;;;0.60;99.90;;;;;;5020263;28;20283;-67
2023/01/26 07:05:43;;;;;;;5.38;4.97;;;0.60;99.90;;;;;;5015272;28;20240;-67
2023/01/26 07:08:12;;;;;;;5.45;5.05;;;0.60;99.90;;;;;;5017154;28;20299;-70
2023/01/26 07:10:39;;;;;;;5.30;5.00;;;0.60;99.90;;;;;;5017271;28;20253;-68
2023/01/26 07:13:07;;;;;;;5.47;5.07;;;0.50;99.90;;;;;;5013717;28;20269;-70
2023/01/26 07:15:34;;;;;;;5.40;5.00;;;0.60;99.90;;;;;;5013133;28;20712;-67
2023/01/26 07:18:01;;;;;;;5.75;5.35;;;0.50;99.90;;;;;;5014063;28;20283;-70
2023/01/26 07:20:28;;;;;;;5.47;5.07;;;0.60;99.90;;;;;;5014646;28;20270;-67
2023/01/26 07:22:55;;;;;;;5.30;4.90;;;0.60;99.90;;;;;;5014559;28;20232;-68
2023/01/26 07:25:23;;;;;;;5.60;5.18;;;0.60;99.90;;;;;;5005551;28;20797;-67
2023/01/26 07:27:56;;;;;;;7.22;6.63;;;0.60;99.90;;;;;;5012297;28;20228;-67
2023/01/26 07:30:23;;;;;;;7.82;7.13;;;0.60;99.90;;;;;;5014425;28;20483;-68
2023/01/26 07:32:50;;;;;;;6.85;6.40;;;0.60;99.90;;;;;;5000814;28;20248;-68
2023/01/26 07:35:17;;;;;;;6.85;6.35;;;0.50;99.90;;;;;;5016718;28;20302;-68
2023/01/26 07:37:44;;;;;;;6.45;5.95;;;0.40;99.90;;;;;;5010800;28;20587;-68
2023/01/26 07:40:12;;;;;;;5.72;5.32;;;0.50;99.90;;;;;;5009951;28;20307;-68
2023/01/26 07:42:40;;;;;;;6.57;6.07;;;0.50;99.90;;;;;;5011960;28;20196;-68
2023/01/26 07:45:08;;;;;;;6.32;5.90;;;0.70;99.90;;;;;;5018747;28;20294;-67
2023/01/26 07:47:36;;;;;;;6.70;6.10;;;0.80;99.90;;;;;;5015611;28;20228;-69
2023/01/26 07:50:06;;;;;;;7.85;7.05;;;0.90;99.90;;;;;;5008659;28;20220;-68
2023/01/26 07:52:32;;;;;;;7.10;6.40;;;0.90;99.90;;;;;;5012574;28;20204;-68
2023/01/26 07:54:59;;;;;;;9.30;8.52;;;0.90;99.90;;;;;;5020493;28;20314;-68
2023/01/26 07:57:26;;;;;;;9.95;9.05;;;0.90;99.90;;;;;;5015350;28;20224;-68
2023/01/26 07:59:54;;;;;;;8.85;8.05;;;0.90;99.90;;;;;;5000958;28;20759;-69
2023/01/26 08:02:21;;;;;;;7.38;6.68;;;0.90;99.90;;;;;;5002973;28;20607;-69
2023/01/26 08:04:49;;;;;;;6.97;6.38;;;1.00;99.90;;;;;;5005684;28;20315;-68
2023/01/26 08:07:16;;;;;;;7.40;6.80;;;1.00;99.90;;;;;;5013285;28;20215;-68
2023/01/26 08:09:43;;;;;;;7.40;6.80;;;1.00;99.90;;;;;;5007162;28;20527;-69
2023/01/26 08:12:09;;;;;;;6.25;5.80;;;1.00;99.90;;;;;;5010914;28;20335;-68
2023/01/26 08:14:36;;;;;;;6.65;6.15;;;1.10;99.90;;;;;;5000923;28;20766;-69
2023/01/26 08:17:05;;;;;;;6.65;6.05;;;1.70;99.90;;;;;;5008656;28;20204;-69
2023/01/26 08:19:31;;;;;;;6.35;5.85;;;2.60;99.90;;;;;;5000472;28;20307;-70
2023/01/26 08:21:58;;;;;;;7.50;6.72;;;3.50;99.90;;;;;;5009443;28;20287;-71
2023/01/26 08:24:26;;;;;;;6.03;5.53;;;4.20;99.90;;;;;;5007812;28;20311;-68
2023/01/26 08:26:53;;;;;;;7.80;7.07;;;4.90;99.90;;;;;;5002365;28;20252;-68
2023/01/26 08:29:21;;;;;;;6.35;5.75;;;5.70;99.90;;;;;;5004500;28;20663;-68
2023/01/26 08:31:48;;;;;;;6.93;6.32;;;6.20;99.90;;;;;;5008318;28;20880;-68
2023/01/26 08:34:16;;;;;;;6.60;6.10;;;6.50;99.90;;;;;;5006333;28;20319;-68
2023/01/26 08:36:43;;;;;;;6.72;6.20;;;6.90;99.90;;;;;;5004940;28;20913;-71
2023/01/26 08:39:10;;;;;;;6.07;5.60;;;7.20;99.90;;;;;;4999870;28;20380;-68
2023/01/26 08:41:37;;;;;;;5.93;5.43;;;7.40;99.90;;;;;;5010214;28;20251;-68
2023/01/26 08:44:03;;;;;;;6.60;6.07;;;7.60;99.90;;;;;;5006456;28;20251;-68
2023/01/26 08:46:30;;;;;;;6.85;6.10;;;8.00;99.90;;;;;;5009390;28;20314;-68
2023/01/26 08:48:57;;;;;;;6.32;5.72;;;8.30;99.90;;;;;;5009077;28;20291;-68
2023/01/26 08:51:26;;;;;;;6.32;5.65;;;8.30;99.90;;;;;;5012355;28;20609;-68
2023/01/26 08:53:53;;;;;;;5.40;5.00;;;8.50;99.90;;;;;;5008315;28;20312;-68
2023/01/26 08:56:21;;;;;;;5.28;4.88;;;8.50;99.90;;;;;;5006482;28;20229;-67
2023/01/26 08:58:48;;;;;;;5.30;4.90;;;8.10;99.90;;;;;;5003294;28;20287;-68
2023/01/26 09:01:16;;;;;;;5.85;5.13;;;8.40;99.90;;;;;;5011622;28;20766;-68
2023/01/26 09:03:43;;;;;;;5.95;5.25;;;8.60;99.90;;;;;;5014050;28;20702;-68
2023/01/26 09:06:12;;;;;;;4.97;4.47;;;8.50;99.90;;;;;;5012379;28;20224;-68
2023/01/26 09:08:40;;;;;;;4.68;4.28;;;8.50;99.90;;;;;;5004244;28;20201;-68
2023/01/26 09:11:08;;;;;;;5.32;4.88;;;8.50;99.90;;;;;;5014183;28;20326;-68
2023/01/26 09:13:36;;;;;;;5.40;5.00;;;8.40;99.90;;;;;;5012986;28;20665;-68
2023/01/26 09:16:03;;;;;;;5.78;5.20;;;8.50;99.90;;;;;;5012889;28;20449;-69
2023/01/26 09:18:30;;;;;;;4.88;4.47;;;8.80;99.90;;;;;;4998394;28;20211;-68
2023/01/26 09:21:03;;;;;;;5.85;5.32;;;9.40;99.90;;;;;;4999947;28;20338;-70
2023/01/26 09:23:31;;;;;;;5.32;4.90;;;10.10;99.90;;;;;;5005710;28;20196;-70
2023/01/26 09:25:59;;;;;;;5.38;4.95;;;10.10;99.90;;;;;;5007322;28;20315;-71
2023/01/26 09:28:26;;;;;;;5.63;5.13;;;9.90;99.90;;;;;;5006152;28;20299;-70
2023/01/26 09:30:53;;;;;;;5.07;4.63;;;10.10;99.90;;;;;;5011545;28;20283;-71
2023/01/26 09:33:21;;;;;;;7.75;4.78;;;10.80;99.90;;;;;;5007519;28;20292;-70
2023/01/26 09:35:49;;;;;;;6.45;4.50;;;12.30;99.90;;;;;;5008735;28;20224;-71
2023/01/26 09:38:15;;;;;;;4.75;4.32;;;13.80;99.90;;;;;;5010359;28;20227;-73
2023/01/26 09:40:53;;;;;;;5.32;4.50;;;15.40;99.90;;;;;;5010603;28;20251;-70
2023/01/26 09:43:33;;;;;;;4.93;4.53;;;16.60;99.90;;;;;;5008021;28;20287;-70
2023/01/26 09:46:12;;;;;;;4.20;3.80;;;17.70;94.40;;;;;;5003413;28;20603;-71
2023/01/26 09:48:45;;;;;;;3.95;3.65;;;18.50;90.40;;;;;;5010057;28;20753;-71
2023/01/26 09:51:19;;;;;;;4.25;3.90;;;18.80;86.20;;;;;;5013102;28;20777;-72
2023/01/26 09:53:52;;;;;;;4.75;4.07;;;18.40;86.00;;;;;;5008955;28;20223;-72
2023/01/26 09:56:21;;;;;;;4.75;4.38;;;17.70;87.30;;;;;;5005341;28;20308;-72
2023/01/26 09:58:57;;;;;;;8.00;5.38;;;16.60;88.50;;;;;;5010062;28;20311;-70
2023/01/26 10:01:31;;;;;;;5.20;4.80;;;14.90;91.30;;;;;;5006522;28;20310;-71
2023/01/26 10:04:04;;;;;;;5.03;4.50;;;13.50;94.10;;;;;;5007294;28;20318;-71
2023/01/26 10:06:32;;;;;;;4.43;4.13;;;12.60;96.20;;;;;;5008244;28;20492;-69
2023/01/26 10:09:01;;;;;;;5.07;4.57;;;12.10;98.20;;;;;;5007199;28;20743;-70
2023/01/26 10:11:34;;;;;;;6.10;5.40;;;11.60;99.70;;;;;;5008570;28;20786;-70
2023/01/26 10:14:07;;;;;;;5.13;4.72;;;11.40;99.90;;;;;;5000172;28;20221;-70
2023/01/26 10:16:36;;;;;;;5.45;4.85;;;11.30;99.90;;;;;;4995460;28;20266;-70
2023/01/26 10:19:06;;;;;;;5.80;5.13;;;11.20;99.90;;;;;;4986350;28;20483;-70
2023/01/26 10:21:38;;;;;;;6.25;5.38;;;11.30;99.90;;;;;;5002239;28;20235;-69
2023/01/26 10:24:08;;;;;;;7.65;4.68;;;11.10;99.90;;;;;;5000730;28;20306;-73
2023/01/26 10:26:35;;;;;;;6.15;5.55;;;11.10;99.90;;;;;;5006067;28;20663;-72
2023/01/26 10:29:04;;;;;;;5.55;5.03;;;11.20;99.90;;;;;;5005327;28;20302;-74
2023/01/26 10:31:33;;;;;;;5.75;5.10;;;11.30;99.90;;;;;;4999779;28;20684;-70
2023/01/26 10:34:06;;;;;;;6.75;5.32;;;11.30;99.90;;;;;;5003865;28;20303;-73
2023/01/26 10:36:33;;;;;;;9.20;4.55;;;11.40;99.90;;;;;;5003825;28;20314;-71
2023/01/26 10:39:05;;;;;;;5.95;5.45;;;10.90;99.90;;;;;;5005445;28;20287;-71
2023/01/26 10:41:32;;;;;;;5.13;4.30;;;10.60;99.90;;;;;;5003566;28;20224;-69
2023/01/26 10:44:01;;;;;;;4.90;4.43;;;10.70;99.90;;;;;;5006010;28;20365;-72
2023/01/26 10:46:34;;;;;;;4.75;4.35;;;11.00;99.90;;;;;;5005851;28;20231;-70
2023/01/26 10:49:04;;;;;;;5.13;4.63;;;11.10;99.90;;;;;;5007951;28;20282;-70
2023/01/26 10:51:32;;;;;;;6.50;4.40;;;11.40;99.90;;;;;;5007266;28;20660;-70
2023/01/26 10:54:29;;;;;;;4.30;3.90;;;11.80;99.90;;;;;;5005730;28;20279;-72
2023/01/26 10:56:58;;;;;;;5.60;5.00;;;12.00;99.90;;;;;;4945219;28;20357;-71
2023/01/26 10:59:33;;;;;;;5.32;4.82;;;11.90;99.90;;;;;;4993507;28;20236;-72
2023/01/26 11:02:17;;;;;;;7.20;4.93;;;11.70;99.90;;;;;;5009820;28;20484;-73
2023/01/26 11:05:02;;;;;;;5.28;3.80;;;11.50;99.90;;;;;;5001519;28;20737;-70
2023/01/26 11:07:33;;;;;;;6.97;4.55;;;11.80;99.90;;;;;;5008837;28;20451;-73
2023/01/26 11:10:17;;;;;;;4.32;3.92;;;11.80;99.90;;;;;;5005621;28;20315;-70
2023/01/26 11:12:44;;;;;;;4.72;4.28;;;11.90;99.50;;;;;;5008263;28;20291;-72
2023/01/26 11:15:16;;;;;;;5.47;4.00;;;11.90;99.90;;;;;;5003106;28;20702;-69
2023/01/26 11:17:50;;;;;;;4.32;3.83;;;12.10;99.90;;;;;;5007497;28;20281;-70
2023/01/26 11:20:43;;;;;;;3.90;3.60;;;12.30;99.70;;;;;;5007506;28;20251;-71
2023/01/26 11:23:17;;;;;;;4.32;4.03;;;12.30;98.90;;;;;;5001680;28;20391;-70
2023/01/26 11:26:01;;;;;;;3.83;3.53;;;12.20;98.80;;;;;;5006652;28;20319;-72
2023/01/26 11:28:39;;;;;;;4.35;3.95;;;12.00;99.20;;;;;;5005843;28;20310;-72
2023/01/26 11:31:16;;;;;;;4.05;3.70;;;11.90;97.50;;;;;;5007443;28;20250;-71
2023/01/26 11:33:56;;;;;;;4.53;3.88;;;12.00;98.40;;;;;;5006503;28;20308;-72
2023/01/26 11:36:35;;;;;;;4.30;3.90;;;11.80;98.60;;;;;;5010959;28;20327;-70
2023/01/26 11:39:11;;;;;;;4.18;3.70;;;11.20;97.60;;;;;;5003754;28;20524;-74
2023/01/26 11:41:50;;;;;;;3.97;3.67;;;11.00;99.20;;;;;;5015286;28;20460;-71
2023/01/26 11:44:42;;;;;;;4.18;3.67;;;10.90;99.30;;;;;;5009552;28;20352;-73
2023/01/26 11:47:25;;;;;;;3.97;3.67;;;10.80;98.90;;;;;;5002836;28;20306;-71
2023/01/26 11:50:06;;;;;;;4.18;3.80;;;10.70;99.30;;;;;;5006496;28;20303;-72
2023/01/26 11:52:42;;;;;;;4.10;3.80;;;10.70;98.80;;;;;;5006558;28;20275;-76
2023/01/26 11:55:22;;;;;;;4.15;3.85;;;11.00;99.90;;;;;;5010075;28;20314;-72
2023/01/26 11:58:02;;;;;;;4.50;4.05;;;11.30;98.20;;;;;;5006082;28;20291;-72
2023/01/26 12:00:39;;;;;;;4.13;3.80;;;11.40;97.70;;;;;;5004234;28;20242;-73
2023/01/26 12:03:17;;;;;;;4.65;4.18;;;11.30;97.80;;;;;;5008731;28;20351;-74
2023/01/26 12:05:50;;;;;;;4.45;4.05;;;11.30;98.00;;;;;;5007852;28;20322;-71
2023/01/26 12:08:23;;;;;;;4.68;3.55;;;11.40;98.20;;;;;;5006112;28;20552;-74
2023/01/26 12:11:20;;;;;;;4.00;3.70;;;11.30;97.20;;;;;;5001132;28;20259;-73
2023/01/26 12:13:59;;;;;;;4.38;3.72;;;11.30;98.10;;;;;;5002748;28;20219;-77
2023/01/26 12:16:35;;;;;;;3.95;3.65;;;11.40;98.00;;;;;;5002147;28;20314;-73
2023/01/26 12:19:11;;;;;;;3.75;3.47;;;11.40;97.80;;;;;;4998945;28;20211;-72
2023/01/26 12:21:44;;;;;;;4.65;3.83;;;11.40;97.20;;;;;;4999453;28;20582;-72
2023/01/26 12:24:19;;;;;;;4.70;3.83;;;11.30;96.40;;;;;;4995614;28;20334;-75
2023/01/26 12:26:50;;;;;;;4.03;3.72;;;11.30;98.40;;;;;;5004411;28;20270;-75
2023/01/26 12:29:22;;;;;;;7.15;3.83;;;11.50;97.40;;;;;;5002644;28;20300;-74
2023/01/26 12:31:55;;;;;;;4.22;3.63;;;11.60;99.90;;;;;;5009159;28;20295;-76
2023/01/26 12:34:25;;;;;;;3.97;3.67;;;11.60;98.30;;;;;;5001193;28;20315;-74
2023/01/26 12:37:04;;;;;;;3.88;3.40;;;11.50;97.60;;;;;;4995324;28;20193;-76
2023/01/26 12:39:34;;;;;;;4.10;3.80;;;11.30;96.60;;;;;;5001078;28;20508;-74
2023/01/26 12:42:13;;;;;;;3.85;3.55;;;11.20;97.60;;;;;;4995277;28;20212;-72
2023/01/26 12:44:46;;;;;;;3.78;3.47;;;11.40;98.20;;;;;;4998352;28;20317;-73
2023/01/26 12:47:21;;;;;;;3.65;3.35;;;11.50;97.90;;;;;;5002833;28;20310;-75
2023/01/26 12:49:54;;;;;;;6.90;3.40;;;11.60;97.10;;;;;;5002888;28;20301;-81
2023/01/26 12:52:28;;;;;;;4.18;3.60;;;11.50;97.30;;;;;;5007269;28;20302;-76
2023/01/26 12:55:00;;;;;;;4.07;3.78;;;11.20;97.60;;;;;;5001696;28;20312;-73
2023/01/26 12:57:35;;;;;;;3.97;3.67;;;11.30;97.10;;;;;;4999609;28;20287;-73
2023/01/26 13:00:07;;;;;;;4.15;3.85;;;11.30;97.40;;;;;;5003330;28;20254;-74
2023/01/26 13:02:36;;;;;;;3.95;3.65;;;11.30;97.20;;;;;;5003162;28;20197;-72
2023/01/26 13:05:06;;;;;;;3.45;3.15;;;11.20;97.00;;;;;;5000667;28;20220;-73
2023/01/26 13:07:36;;;;;;;3.67;3.38;;;11.20;97.90;;;;;;5003729;28;20293;-73
2023/01/26 13:10:24;;;;;;;4.53;4.10;;;11.40;97.80;;;;;;5005102;28;20315;-78
2023/01/26 13:12:52;;;;;;;4.10;3.70;;;11.70;96.80;;;;;;5003186;28;20287;-76
2023/01/26 13:15:22;;;;;;;4.10;3.80;;;11.50;96.90;;;;;;5002349;28;20315;-74
2023/01/26 13:18:00;;;;;;;3.90;3.55;;;11.20;96.90;;;;;;5006770;28;20304;-73
2023/01/26 13:20:51;;;;;;;3.95;3.63;;;11.00;96.70;;;;;;4999822;28;20757;-73
2023/01/26 13:23:43;;;;;;;3.70;3.40;;;10.70;96.60;;;;;;5005959;28;20278;-71
2023/01/26 13:26:19;;;;;;;4.25;3.85;;;10.30;96.80;;;;;;5009328;28;20308;-73
2023/01/26 13:28:47;;;;;;;3.67;3.38;;;10.10;98.10;;;;;;5002422;28;20299;-75
2023/01/26 13:31:33;;;;;;;6.82;3.92;;;10.20;98.40;;;;;;4993576;28;20727;-75
2023/01/26 13:34:03;;;;;;;4.15;3.75;;;10.30;97.90;;;;;;4997783;28;20311;-78
2023/01/26 13:36:34;;;;;;;3.58;3.28;;;10.60;97.90;;;;;;4998437;28;20224;-77
2023/01/26 13:39:11;;;;;;;3.88;3.50;;;10.80;97.90;;;;;;4997241;28;20276;-72
2023/01/26 13:41:46;;;;;;;3.70;3.40;;;10.80;98.00;;;;;;5005636;28;20220;-72
2023/01/26 13:44:17;;;;;;;3.83;3.53;;;10.60;98.00;;;;;;5002392;28;20306;-76
2023/01/26 13:46:49;;;;;;;3.65;3.35;;;10.40;97.30;;;;;;5007486;28;20670;-76
2023/01/26 13:49:25;;;;;;;4.35;3.70;;;10.00;97.90;;;;;;5002429;28;20204;-76
2023/01/26 13:51:51;;;;;;;3.90;3.55;;;9.90;98.70;;;;;;5006133;28;20203;-75
2023/01/26 13:54:21;;;;;;;3.75;3.47;;;10.00;98.80;;;;;;5003241;28;20753;-73
2023/01/26 13:57:01;;;;;;;4.55;4.15;;;10.20;98.80;;;;;;5002330;28;20634;-75
2023/01/26 13:59:28;;;;;;;3.90;3.60;;;10.30;97.30;;;;;;5005957;28;20192;-74
2023/01/26 14:01:57;;;;;;;3.80;3.50;;;10.00;98.50;;;;;;5003220;28;20243;-74